RJTS(METAR)
06/25 14:00
METAR RJTS 250500Z 12006KT 9999 FEW020 SCT030 24/14 Q1017 RMK 1CU020
3CU030 A3003=
戻る
トップページへ戻る
IMOC Co,.Ltd.